createdAt,value
2023-05-05T00:02:23.841Z,5.68
2023-05-05T00:04:50.450Z,4.85
2023-05-05T00:07:16.969Z,5.07
2023-05-05T00:09:43.296Z,4.70
2023-05-05T00:12:10.015Z,5.10
2023-05-05T00:14:36.372Z,4.97
2023-05-05T00:17:04.029Z,5.50
2023-05-05T00:19:30.748Z,5.30
2023-05-05T00:21:57.083Z,5.47
2023-05-05T00:24:23.509Z,4.78
2023-05-05T00:26:51.026Z,4.90
2023-05-05T00:29:17.413Z,5.20
2023-05-05T00:31:44.128Z,4.50
2023-05-05T00:34:11.012Z,4.78
2023-05-05T00:36:37.414Z,5.00
2023-05-05T00:39:04.243Z,5.15
2023-05-05T00:41:30.727Z,5.07
2023-05-05T00:43:57.123Z,5.10
2023-05-05T00:46:29.635Z,4.95
2023-05-05T00:48:57.321Z,4.82
2023-05-05T00:51:24.320Z,4.57
2023-05-05T00:53:51.592Z,4.68
2023-05-05T00:56:19.576Z,5.80
2023-05-05T00:58:46.681Z,5.05
2023-05-05T01:01:14.159Z,5.03
2023-05-05T01:03:41.545Z,5.00
2023-05-05T01:06:21.115Z,5.00
2023-05-05T01:09:09.036Z,4.80
2023-05-05T01:11:49.735Z,4.45
2023-05-05T01:14:19.205Z,4.95
2023-05-05T01:16:53.255Z,5.15
2023-05-05T01:19:25.553Z,4.83
2023-05-05T01:21:57.498Z,4.97
2023-05-05T01:24:43.928Z,5.38
2023-05-05T01:27:55.969Z,4.50
2023-05-05T01:30:44.014Z,5.32
2023-05-05T01:33:14.696Z,4.50
2023-05-05T01:35:45.784Z,5.32
2023-05-05T01:38:17.997Z,5.60
2023-05-05T01:40:51.499Z,5.70
2023-05-05T01:43:21.761Z,5.80
2023-05-05T01:45:49.512Z,6.00
2023-05-05T01:48:19.717Z,5.35
2023-05-05T01:50:48.789Z,5.25
2023-05-05T01:53:17.463Z,5.28
2023-05-05T01:55:46.153Z,5.25
2023-05-05T01:58:14.646Z,5.00
2023-05-05T02:00:42.669Z,4.82
2023-05-05T02:03:11.002Z,5.20
2023-05-05T02:05:40.154Z,5.53
2023-05-05T02:08:08.778Z,5.70
2023-05-05T02:10:38.022Z,4.75
2023-05-05T02:13:05.377Z,4.95
2023-05-05T02:15:34.143Z,5.18
2023-05-05T02:18:02.017Z,6.00
2023-05-05T02:20:31.573Z,5.63
2023-05-05T02:22:59.560Z,5.13
2023-05-05T02:25:32.290Z,5.43
2023-05-05T02:28:01.418Z,6.00
2023-05-05T02:30:30.727Z,5.53
2023-05-05T02:33:04.948Z,5.43
2023-05-05T02:35:37.778Z,6.78
2023-05-05T02:38:06.685Z,5.93
2023-05-05T02:40:34.704Z,6.07
2023-05-05T02:43:05.634Z,5.53
2023-05-05T02:45:32.614Z,5.97
2023-05-05T02:48:04.026Z,6.07
2023-05-05T02:50:34.062Z,6.13
2023-05-05T02:53:00.979Z,5.60
2023-05-05T02:55:52.260Z,5.93
2023-05-05T02:58:29.013Z,5.25
2023-05-05T03:00:58.442Z,5.45
2023-05-05T03:03:36.984Z,5.25
2023-05-05T03:06:19.079Z,5.40
2023-05-05T03:09:14.676Z,5.18
2023-05-05T03:11:49.612Z,4.88
2023-05-05T03:14:19.491Z,5.63
2023-05-05T03:16:47.477Z,6.03
2023-05-05T03:19:17.712Z,5.75
2023-05-05T03:21:44.960Z,5.60
2023-05-05T03:24:16.018Z,4.97
2023-05-05T03:26:43.134Z,5.50
2023-05-05T03:29:09.886Z,5.40
2023-05-05T03:31:36.791Z,5.38
2023-05-05T03:34:03.337Z,5.13
2023-05-05T03:36:30.842Z,5.32
2023-05-05T03:38:58.569Z,5.93
2023-05-05T03:41:25.770Z,6.22
2023-05-05T03:43:52.141Z,5.22
2023-05-05T03:46:18.896Z,5.68
2023-05-05T03:48:46.027Z,6.40
2023-05-05T03:51:12.961Z,6.43
2023-05-05T03:53:39.694Z,6.28
2023-05-05T03:56:06.195Z,5.35
2023-05-05T03:58:32.731Z,5.35
2023-05-05T04:00:59.579Z,5.22
2023-05-05T04:03:26.081Z,5.43
2023-05-05T04:05:52.582Z,5.97
2023-05-05T04:08:19.304Z,5.68
2023-05-05T04:10:45.789Z,5.75
2023-05-05T04:13:13.692Z,5.60
2023-05-05T04:15:47.468Z,5.60
2023-05-05T04:18:14.020Z,5.38
2023-05-05T04:20:40.422Z,5.43
2023-05-05T04:23:08.155Z,6.68
2023-05-05T04:25:34.570Z,5.93
2023-05-05T04:28:01.065Z,6.05
2023-05-05T04:30:27.873Z,5.43
2023-05-05T04:32:54.255Z,6.47
2023-05-05T04:35:20.790Z,6.53
2023-05-05T04:37:47.591Z,6.50
2023-05-05T04:40:13.946Z,6.55
2023-05-05T04:42:40.384Z,8.82
2023-05-05T04:45:08.906Z,6.70
2023-05-05T04:47:39.141Z,6.03
2023-05-05T04:50:07.138Z,6.63
2023-05-05T04:52:34.162Z,7.35
2023-05-05T04:55:01.083Z,6.20
2023-05-05T04:57:27.477Z,6.00
2023-05-05T04:59:54.177Z,6.43
2023-05-05T05:02:20.969Z,7.18
2023-05-05T05:04:47.395Z,11.93
2023-05-05T05:07:15.339Z,9.27
2023-05-05T05:09:41.724Z,8.15
2023-05-05T05:12:09.573Z,9.20
2023-05-05T05:14:39.881Z,9.30
2023-05-05T05:17:06.688Z,9.93
2023-05-05T05:19:33.057Z,7.78
2023-05-05T05:21:59.682Z,7.63
2023-05-05T05:24:26.168Z,9.15
2023-05-05T05:26:53.021Z,7.90
2023-05-05T05:29:20.308Z,8.20
2023-05-05T05:31:46.743Z,21.92
2023-05-05T05:34:13.465Z,23.45
2023-05-05T05:36:39.805Z,23.70
2023-05-05T05:39:06.302Z,11.82
2023-05-05T05:41:33.137Z,8.57
2023-05-05T05:43:59.494Z,7.90
2023-05-05T05:46:25.851Z,8.73
2023-05-05T05:48:52.806Z,9.10
2023-05-05T05:51:19.211Z,8.93
2023-05-05T05:53:45.544Z,12.95
2023-05-05T05:56:12.310Z,11.70
2023-05-05T05:58:38.948Z,9.15
2023-05-05T06:01:05.830Z,9.40
2023-05-05T06:03:32.352Z,7.85
2023-05-05T06:05:59.142Z,8.43
2023-05-05T06:08:26.870Z,9.00
2023-05-05T06:10:53.293Z,10.07
2023-05-05T06:13:19.826Z,10.30
2023-05-05T06:15:46.557Z,9.43
2023-05-05T06:18:13.006Z,8.73
2023-05-05T06:20:39.457Z,9.13
2023-05-05T06:23:06.475Z,9.07
2023-05-05T06:25:32.832Z,10.07
2023-05-05T06:27:59.940Z,10.40
2023-05-05T06:30:26.857Z,9.75
2023-05-05T06:32:54.254Z,10.68
2023-05-05T06:35:22.636Z,15.05
2023-05-05T06:37:49.039Z,8.88
2023-05-05T06:40:15.568Z,9.60
2023-05-05T06:42:42.254Z,9.57
2023-05-05T06:45:09.130Z,9.43
2023-05-05T06:47:35.890Z,9.40
2023-05-05T06:50:02.789Z,9.57
2023-05-05T06:52:29.230Z,9.10
2023-05-05T06:54:55.919Z,9.95
2023-05-05T06:57:22.234Z,14.35
2023-05-05T06:59:48.967Z,41.70
2023-05-05T07:02:15.376Z,12.88
2023-05-05T07:04:42.991Z,35.75
2023-05-05T07:07:09.346Z,23.50
2023-05-05T07:09:36.372Z,47.17
2023-05-05T07:12:03.503Z,9.52
2023-05-05T07:14:29.859Z,9.45
2023-05-05T07:16:56.743Z,9.75
2023-05-05T07:19:23.542Z,11.15
2023-05-05T07:21:50.450Z,11.32
2023-05-05T07:24:16.781Z,11.35
2023-05-05T07:26:43.390Z,11.27
2023-05-05T07:29:10.263Z,11.98
2023-05-05T07:31:36.610Z,12.52
2023-05-05T07:34:02.983Z,11.88
2023-05-05T07:36:30.026Z,11.43
2023-05-05T07:38:56.432Z,11.35
2023-05-05T07:41:22.798Z,10.95
2023-05-05T07:43:49.517Z,10.02
2023-05-05T07:46:16.009Z,10.65
2023-05-05T07:48:42.424Z,10.82
2023-05-05T07:51:09.752Z,10.57
2023-05-05T07:53:36.882Z,11.02
2023-05-05T07:56:03.461Z,12.55
2023-05-05T07:58:30.390Z,10.85
2023-05-05T08:00:56.763Z,10.65
2023-05-05T08:03:24.713Z,10.95
2023-05-05T08:05:56.084Z,10.90
2023-05-05T08:08:26.782Z,9.73
2023-05-05T08:10:53.377Z,10.45
2023-05-05T08:13:20.642Z,9.80
2023-05-05T08:15:47.224Z,9.55
2023-05-05T08:18:14.192Z,9.95
2023-05-05T08:20:40.984Z,11.63
2023-05-05T08:23:07.339Z,8.60
2023-05-05T08:25:33.692Z,8.80
2023-05-05T08:28:00.448Z,10.20
2023-05-05T08:30:26.999Z,8.80
2023-05-05T08:32:53.453Z,7.90
2023-05-05T08:35:20.177Z,9.95
2023-05-05T08:37:46.587Z,10.02
2023-05-05T08:40:16.605Z,11.35
2023-05-05T08:42:45.980Z,7.88
2023-05-05T08:45:12.981Z,17.35
2023-05-05T08:47:39.670Z,8.35
2023-05-05T08:50:09.834Z,7.85
2023-05-05T08:52:43.505Z,12.50
2023-05-05T08:55:17.913Z,69.22
2023-05-05T08:57:52.038Z,60.22
2023-05-05T09:00:20.731Z,11.75
2023-05-05T09:02:47.919Z,6.30
2023-05-05T09:05:15.573Z,6.80
2023-05-05T09:07:43.653Z,6.80
2023-05-05T09:10:12.100Z,5.63
2023-05-05T09:12:42.383Z,6.07
2023-05-05T09:15:11.482Z,5.60
2023-05-05T09:17:38.880Z,5.13
2023-05-05T09:20:07.442Z,4.35
2023-05-05T09:22:54.081Z,5.15
2023-05-05T09:25:20.794Z,5.00
2023-05-05T09:27:48.898Z,5.68
2023-05-05T09:30:17.602Z,4.53
2023-05-05T09:32:46.075Z,4.10
2023-05-05T09:35:12.623Z,2.97
2023-05-05T09:37:39.020Z,2.83
2023-05-05T09:40:07.671Z,2.92
2023-05-05T09:42:35.697Z,2.80
2023-05-05T09:45:02.056Z,2.55
2023-05-05T09:47:37.999Z,2.15
2023-05-05T09:50:06.059Z,2.15
2023-05-05T09:52:32.647Z,2.50
2023-05-05T09:54:59.565Z,2.40
2023-05-05T09:57:35.011Z,2.80
2023-05-05T10:00:04.526Z,2.63
2023-05-05T10:02:32.736Z,2.67
2023-05-05T10:05:11.478Z,3.03
2023-05-05T10:07:39.181Z,3.33
2023-05-05T10:10:14.420Z,2.85
2023-05-05T10:12:41.223Z,2.70
2023-05-05T10:15:09.855Z,2.85
2023-05-05T10:17:53.976Z,2.70
2023-05-05T10:20:32.945Z,3.47
2023-05-05T10:23:02.922Z,3.50
2023-05-05T10:25:33.658Z,3.28
2023-05-05T10:28:01.168Z,2.97
2023-05-05T10:30:32.086Z,3.20
2023-05-05T10:33:30.062Z,2.90
2023-05-05T10:36:01.812Z,3.50
2023-05-05T10:38:31.005Z,3.38
2023-05-05T10:40:59.367Z,4.45
2023-05-05T10:43:27.244Z,5.00
2023-05-05T10:45:54.718Z,3.38
2023-05-05T10:48:29.736Z,3.10
2023-05-05T10:51:05.582Z,3.53
2023-05-05T10:53:41.633Z,2.95
2023-05-05T10:56:34.189Z,2.72
2023-05-05T10:59:01.004Z,2.80
2023-05-05T11:01:35.665Z,2.15
2023-05-05T11:04:21.991Z,2.00
2023-05-05T11:07:14.641Z,1.88
2023-05-05T11:09:57.802Z,1.90
2023-05-05T11:12:24.608Z,1.80
2023-05-05T11:15:28.443Z,1.90
2023-05-05T11:17:56.983Z,2.05
2023-05-05T11:20:39.895Z,2.03
2023-05-05T11:23:07.299Z,2.00
2023-05-05T11:25:40.878Z,2.00
2023-05-05T11:30:58.690Z,1.75
2023-05-05T11:33:29.773Z,1.80
2023-05-05T11:35:59.288Z,1.80
2023-05-05T11:38:56.456Z,1.50
2023-05-05T11:41:35.028Z,2.28
2023-05-05T11:44:18.692Z,1.85
2023-05-05T11:46:51.128Z,1.83
2023-05-05T11:49:28.264Z,1.90
2023-05-05T11:52:03.937Z,1.83
2023-05-05T11:54:31.258Z,1.73
2023-05-05T11:57:01.849Z,2.00
2023-05-05T11:59:28.175Z,1.77
2023-05-05T12:01:54.753Z,1.90
2023-05-05T12:04:21.188Z,1.70
2023-05-05T12:06:48.915Z,2.67
2023-05-05T12:09:16.823Z,1.92
2023-05-05T12:11:54.021Z,1.95
2023-05-05T12:14:21.821Z,1.77
2023-05-05T12:17:07.036Z,1.92
2023-05-05T12:19:33.649Z,2.00
2023-05-05T12:22:01.166Z,1.95
2023-05-05T12:24:27.967Z,1.98
2023-05-05T12:26:54.805Z,2.00
2023-05-05T12:29:29.287Z,1.88
2023-05-05T12:31:58.262Z,1.60
2023-05-05T12:34:24.825Z,1.83
2023-05-05T12:36:51.452Z,1.67
2023-05-05T12:39:18.261Z,1.95
2023-05-05T12:41:44.688Z,1.60
2023-05-05T12:44:11.062Z,1.60
2023-05-05T12:46:49.162Z,1.67
2023-05-05T12:49:16.629Z,1.90
2023-05-05T12:51:54.645Z,1.95
2023-05-05T12:54:23.277Z,1.70
2023-05-05T12:56:49.678Z,2.30
2023-05-05T12:59:22.733Z,1.67
2023-05-05T13:01:50.963Z,1.60
2023-05-05T13:04:18.187Z,1.90
2023-05-05T13:06:48.834Z,1.80
2023-05-05T13:09:36.612Z,1.65
2023-05-05T13:12:04.810Z,1.63
2023-05-05T13:14:34.949Z,1.60
2023-05-05T13:17:01.337Z,1.50
2023-05-05T13:19:27.968Z,1.90
2023-05-05T13:21:56.762Z,1.83
2023-05-05T13:24:31.637Z,1.98
2023-05-05T13:27:09.250Z,1.70
2023-05-05T13:29:35.620Z,1.60
2023-05-05T13:32:02.003Z,1.98
2023-05-05T13:34:28.854Z,1.75
2023-05-05T13:36:55.332Z,1.50
2023-05-05T13:39:21.758Z,1.95
2023-05-05T13:41:48.193Z,1.75
2023-05-05T13:44:14.630Z,1.70
2023-05-05T13:46:44.244Z,1.70
2023-05-05T13:49:11.103Z,1.75
2023-05-05T13:51:38.921Z,1.50
2023-05-05T13:54:06.724Z,1.58
2023-05-05T13:56:34.034Z,1.58
2023-05-05T13:59:00.877Z,1.58
2023-05-05T14:01:27.344Z,1.45
2023-05-05T14:03:55.571Z,1.98
2023-05-05T14:06:23.526Z,1.75
2023-05-05T14:08:50.126Z,1.50
2023-05-05T14:11:17.945Z,1.50
2023-05-05T14:13:46.339Z,1.45
2023-05-05T14:16:13.571Z,1.70
2023-05-05T14:18:40.080Z,1.60
2023-05-05T14:21:06.480Z,1.70
2023-05-05T14:23:33.294Z,1.45
2023-05-05T14:25:59.731Z,1.75
2023-05-05T14:28:26.347Z,1.52
2023-05-05T14:30:52.994Z,1.40
2023-05-05T14:33:19.588Z,1.98
2023-05-05T14:35:45.930Z,1.70
2023-05-05T14:38:12.343Z,1.73
2023-05-05T14:40:38.682Z,1.63
2023-05-05T14:43:05.000Z,1.70
2023-05-05T14:45:31.881Z,1.80
2023-05-05T14:47:58.541Z,2.08
2023-05-05T14:50:24.939Z,1.60
2023-05-05T14:52:51.317Z,1.75
2023-05-05T14:55:18.114Z,1.80
2023-05-05T14:57:44.470Z,2.20
2023-05-05T15:00:11.227Z,1.55
2023-05-05T15:02:37.689Z,1.83
2023-05-05T15:05:05.063Z,1.90
2023-05-05T15:07:32.060Z,1.70
2023-05-05T15:09:58.439Z,1.88
2023-05-05T15:12:25.904Z,1.60
2023-05-05T15:14:52.737Z,1.60
2023-05-05T15:17:19.273Z,2.03
2023-05-05T15:19:45.742Z,2.00
2023-05-05T15:22:12.417Z,2.00
2023-05-05T15:24:38.797Z,1.77
2023-05-05T15:27:05.197Z,1.85
2023-05-05T15:29:31.985Z,1.92
2023-05-05T15:31:58.375Z,2.10
2023-05-05T15:34:24.809Z,3.15
2023-05-05T15:36:51.811Z,3.33
2023-05-05T15:39:18.692Z,2.05
2023-05-05T15:41:45.119Z,1.85
2023-05-05T15:44:12.350Z,2.28
2023-05-05T15:46:39.634Z,2.00
2023-05-05T15:49:06.495Z,2.00
2023-05-05T15:51:32.862Z,2.63
2023-05-05T15:54:00.159Z,3.85
2023-05-05T15:56:30.003Z,2.42
2023-05-05T15:58:56.796Z,1.92
2023-05-05T16:01:23.255Z,2.83
2023-05-05T16:03:50.038Z,2.20
2023-05-05T16:06:16.453Z,1.85
2023-05-05T16:08:42.945Z,1.65
2023-05-05T16:11:09.973Z,1.63
2023-05-05T16:13:36.331Z,1.80
2023-05-05T16:16:03.195Z,2.20
2023-05-05T16:18:29.879Z,1.80
2023-05-05T16:20:56.196Z,1.63
2023-05-05T16:23:22.764Z,2.00
2023-05-05T16:25:49.518Z,2.70
2023-05-05T16:28:15.894Z,3.65
2023-05-05T16:30:43.547Z,2.10
2023-05-05T16:33:10.241Z,2.28
2023-05-05T16:35:36.712Z,2.58
2023-05-05T16:38:03.806Z,6.53
2023-05-05T16:40:30.180Z,3.42
2023-05-05T16:42:56.892Z,2.58
2023-05-05T16:45:24.247Z,2.75
2023-05-05T16:47:51.397Z,3.63
2023-05-05T16:50:17.842Z,3.97
2023-05-05T16:52:44.198Z,3.50
2023-05-05T16:55:11.272Z,4.30
2023-05-05T16:57:37.927Z,5.40
2023-05-05T17:00:06.734Z,4.07
2023-05-05T17:02:33.693Z,3.00
2023-05-05T17:05:00.137Z,3.78
2023-05-05T17:07:27.313Z,12.70
2023-05-05T17:09:53.668Z,2.95
2023-05-05T17:12:20.130Z,3.10
2023-05-05T17:14:46.907Z,2.67
2023-05-05T17:17:13.954Z,3.33
2023-05-05T17:19:40.395Z,3.60
2023-05-05T17:22:06.715Z,2.97
2023-05-05T17:24:33.499Z,2.63
2023-05-05T17:26:59.816Z,2.58
2023-05-05T17:29:26.438Z,3.03
2023-05-05T17:31:54.062Z,3.47
2023-05-05T17:34:20.549Z,3.47
2023-05-05T17:36:46.892Z,3.10
2023-05-05T17:39:14.024Z,3.40
2023-05-05T17:41:41.861Z,3.17
2023-05-05T17:44:08.229Z,3.28
2023-05-05T17:46:35.181Z,3.40
2023-05-05T17:49:01.555Z,2.97
2023-05-05T17:51:28.140Z,3.63
2023-05-05T17:53:55.044Z,3.38
2023-05-05T17:56:22.037Z,3.97
2023-05-05T17:58:48.830Z,4.00
2023-05-05T18:01:25.862Z,3.88
2023-05-05T18:03:52.667Z,4.00
2023-05-05T18:06:19.059Z,3.97
2023-05-05T18:08:46.040Z,3.85
2023-05-05T18:11:12.588Z,3.90
2023-05-05T18:13:39.405Z,3.72
2023-05-05T18:16:06.888Z,3.15
2023-05-05T18:18:33.384Z,2.88
2023-05-05T18:21:00.378Z,2.65
2023-05-05T18:23:26.931Z,2.88
2023-05-05T18:25:53.323Z,2.70
2023-05-05T18:28:21.034Z,2.47
2023-05-05T18:30:47.353Z,2.80
2023-05-05T18:33:13.673Z,3.00
2023-05-05T18:35:40.651Z,3.00
2023-05-05T18:38:07.038Z,3.10
2023-05-05T18:40:33.401Z,3.55
2023-05-05T18:43:00.202Z,2.97
2023-05-05T18:45:26.550Z,3.30
2023-05-05T18:47:53.710Z,2.70
2023-05-05T18:50:20.119Z,2.88
2023-05-05T18:52:46.482Z,2.72
2023-05-05T18:55:13.269Z,3.53
2023-05-05T18:57:39.673Z,3.38
2023-05-05T19:00:06.773Z,2.95
2023-05-05T19:02:33.176Z,3.50
2023-05-05T19:04:59.615Z,3.35
2023-05-05T19:07:34.864Z,4.00
2023-05-05T19:10:03.544Z,3.72
2023-05-05T19:12:29.904Z,3.65
2023-05-05T19:14:56.273Z,3.63
2023-05-05T19:17:22.841Z,4.07
2023-05-05T19:19:49.737Z,3.85
2023-05-05T19:22:17.333Z,3.80
2023-05-05T19:24:44.096Z,3.85
2023-05-05T19:27:15.470Z,3.90
2023-05-05T19:29:42.703Z,3.90
2023-05-05T19:32:09.464Z,3.67
2023-05-05T19:34:36.234Z,3.28
2023-05-05T19:37:02.569Z,3.55
2023-05-05T19:39:29.226Z,3.88
2023-05-05T19:41:56.225Z,3.47
2023-05-05T19:44:22.734Z,3.65
2023-05-05T19:46:49.501Z,3.50
2023-05-05T19:49:16.336Z,3.85
2023-05-05T19:51:42.829Z,3.70
2023-05-05T19:54:09.610Z,3.70
2023-05-05T19:56:36.270Z,3.92
2023-05-05T19:59:04.923Z,3.80
2023-05-05T20:01:33.489Z,3.97
2023-05-05T20:04:00.019Z,4.10
2023-05-05T20:06:26.912Z,4.18
2023-05-05T20:08:55.102Z,3.63
2023-05-05T20:11:21.779Z,3.78
2023-05-05T20:13:49.639Z,4.00
2023-05-05T20:16:16.850Z,4.40
2023-05-05T20:18:43.604Z,4.20
2023-05-05T20:21:10.498Z,3.65
2023-05-05T20:23:37.886Z,3.63
2023-05-05T20:26:04.407Z,3.83
2023-05-05T20:28:31.595Z,3.38
2023-05-05T20:30:58.459Z,3.53
2023-05-05T20:33:24.822Z,3.35
2023-05-05T20:35:51.143Z,3.38
2023-05-05T20:38:17.578Z,3.30
2023-05-05T20:40:43.928Z,3.40
2023-05-05T20:43:10.261Z,3.78
2023-05-05T20:45:37.463Z,3.15
2023-05-05T20:48:05.238Z,3.65
2023-05-05T20:50:31.827Z,3.30
2023-05-05T20:52:59.180Z,3.50
2023-05-05T20:55:25.904Z,3.40
2023-05-05T20:57:52.245Z,3.30
2023-05-05T21:00:25.040Z,3.45
2023-05-05T21:02:51.399Z,3.17
2023-05-05T21:05:17.999Z,3.30
2023-05-05T21:07:45.386Z,3.60
2023-05-05T21:10:11.987Z,2.95
2023-05-05T21:12:40.212Z,3.88
2023-05-05T21:15:08.445Z,4.10
2023-05-05T21:17:35.020Z,3.90
2023-05-05T21:20:01.529Z,3.53
2023-05-05T21:22:27.979Z,3.85
2023-05-05T21:24:54.556Z,3.67
2023-05-05T21:27:21.076Z,2.60
2023-05-05T21:29:50.705Z,3.10
2023-05-05T21:32:17.127Z,2.58
2023-05-05T21:34:43.585Z,3.28
2023-05-05T21:37:11.907Z,3.20
2023-05-05T21:39:38.219Z,3.42
2023-05-05T21:42:04.638Z,3.50
2023-05-05T21:44:31.140Z,3.95
2023-05-05T21:46:57.512Z,3.75
2023-05-05T21:49:24.326Z,3.70
2023-05-05T21:51:51.057Z,4.20
2023-05-05T21:54:17.388Z,3.65
2023-05-05T21:56:43.723Z,4.40
2023-05-05T21:59:10.298Z,4.32
2023-05-05T22:01:36.856Z,4.05
2023-05-05T22:04:03.540Z,4.10
2023-05-05T22:06:30.341Z,4.43
2023-05-05T22:08:56.948Z,4.45
2023-05-05T22:11:23.593Z,4.35
2023-05-05T22:13:50.458Z,4.50
2023-05-05T22:16:19.913Z,4.82
2023-05-05T22:18:46.711Z,4.45
2023-05-05T22:21:13.322Z,4.43
2023-05-05T22:23:41.683Z,4.00
2023-05-05T22:26:09.355Z,4.20
2023-05-05T22:28:35.982Z,4.47
2023-05-05T22:31:02.555Z,4.30
2023-05-05T22:33:29.420Z,4.43
2023-05-05T22:35:55.935Z,4.30
2023-05-05T22:38:22.564Z,4.00
2023-05-05T22:40:49.293Z,4.00
2023-05-05T22:43:16.218Z,4.13
2023-05-05T22:45:43.410Z,3.97
2023-05-05T22:48:10.121Z,4.07
2023-05-05T22:50:37.780Z,3.75
2023-05-05T22:53:04.196Z,3.45
2023-05-05T22:55:30.850Z,3.80
2023-05-05T22:57:57.525Z,3.67
2023-05-05T23:00:24.092Z,3.78
2023-05-05T23:02:50.610Z,3.63
2023-05-05T23:05:17.587Z,3.33
2023-05-05T23:07:43.968Z,3.90
2023-05-05T23:10:10.672Z,4.88
2023-05-05T23:12:37.535Z,4.38
2023-05-05T23:15:04.583Z,4.57
2023-05-05T23:17:31.078Z,4.35
2023-05-05T23:19:57.986Z,4.72
2023-05-05T23:22:24.342Z,4.80
2023-05-05T23:24:51.008Z,4.63
2023-05-05T23:27:17.732Z,5.00
2023-05-05T23:29:44.077Z,5.15
2023-05-05T23:32:10.582Z,4.80
2023-05-05T23:34:37.319Z,5.47
2023-05-05T23:37:05.925Z,4.85
2023-05-05T23:39:35.414Z,5.03
2023-05-05T23:42:01.770Z,4.53
2023-05-05T23:44:28.081Z,4.63
2023-05-05T23:46:54.998Z,4.80
2023-05-05T23:49:21.372Z,4.63
2023-05-05T23:51:47.691Z,4.80
2023-05-05T23:54:14.408Z,5.07
2023-05-05T23:56:41.028Z,5.10
2023-05-05T23:59:07.357Z,4.68
